Williamsburg, New Mexico
Current Conditions -  °F | °C
As of 4:53 PM on Sunday 23 Nov 2014 (Local Time) from KTCS Reporting Station
Clear Clear  
Wind Chill: 50°   Ceiling: Unl
Heat Index: 50°   Visibility: 10mi
Dew Point:   Wind: 25mph
Humidity: 13%   Direction: 320°NW
Pressure: 29.95"   Gusts: 32mph
Location:  33.12°N, 107.29°W
Report Text: KTCS 232353Z AUTO 32022G28KT 10SM CLR 10/M18 A2995 RMK AO2 PK WND 31033/2307 SLP113 T01001178 10156 20100 53035 TSNO
Loading
Personal Weather Stations






























Interactive Weather Map New forecast layout! Learn more

10-Day Weather Forecast

Advertisements
Track Severe Weather on mobile